Time;durP1;ratioP1;P1;durP2;ratioP2;P2;SDS_P1;SDS_P2;PMS_P1;PMS_P2;Temp;Humidity;BMP_temperature;BMP_pressure;BME280_temperature;BME280_humidity;BME280_pressure;Samples;Min_cycle;Max_cycle;Signal;HPM_P1;HPM_P2
2021/11/12 00:03:23;;;;;;;25.60;17.33;;;;;;;22.42;45.49;100700.53;7388691;19;20034;-55
2021/11/12 00:12:23;;;;;;;23.08;17.35;;;;;;;22.44;44.97;100693.25;7388459;19;20601;-54
2021/11/12 00:15:12;;;;;;;24.65;18.15;;;;;;;22.42;45.23;100684.50;7385715;19;20033;-50
2021/11/12 00:18:01;;;;;;;23.53;17.60;;;;;;;22.42;45.24;100688.03;7387208;19;20616;-53
2021/11/12 00:20:51;;;;;;;24.45;17.38;;;;;;;22.44;44.85;100687.91;7386161;19;20282;-52
2021/11/12 00:23:40;;;;;;;23.23;17.35;;;;;;;22.40;45.01;100687.31;7387024;19;20030;-54
2021/11/12 00:26:28;;;;;;;25.63;17.67;;;;;;;22.40;45.07;100689.13;7387497;19;20106;-52
2021/11/12 00:29:16;;;;;;;23.15;16.08;;;;;;;22.42;45.22;100690.69;7385790;19;20029;-51
2021/11/12 00:32:09;;;;;;;23.35;17.55;;;;;;;22.42;45.09;100685.38;7387724;19;20057;-55
2021/11/12 00:35:07;;;;;;;23.20;16.77;;;;;;;22.43;45.18;100681.72;7386014;19;20592;-55
2021/11/12 00:38:02;;;;;;;22.23;17.33;;;;;;;22.44;45.09;100677.22;7387349;19;20397;-54
2021/11/12 00:40:56;;;;;;;21.92;16.40;;;;;;;22.44;45.43;100677.22;7387185;19;20030;-58
2021/11/12 00:43:46;;;;;;;23.35;16.98;;;;;;;22.44;45.36;100672.72;7385407;19;20034;-57
2021/11/12 00:46:38;;;;;;;22.30;15.85;;;;;;;22.45;45.69;100671.75;7388501;19;20040;-56
2021/11/12 00:49:28;;;;;;;23.08;17.00;;;;;;;22.47;45.08;100658.25;7386047;19;20470;-57
2021/11/12 00:52:27;;;;;;;22.67;16.37;;;;;;;22.48;45.12;100666.16;7387665;19;20025;-56
2021/11/12 00:55:18;;;;;;;22.95;16.25;;;;;;;22.50;45.48;100666.06;7387000;19;20308;-59
2021/11/12 00:58:06;;;;;;;20.35;15.93;;;;;;;22.52;45.53;100666.78;7386541;19;20132;-56
2021/11/12 01:00:53;;;;;;;20.63;15.18;;;;;;;22.51;45.72;100673.94;7386041;19;20128;-53
2021/11/12 01:03:41;;;;;;;21.73;16.05;;;;;;;22.51;45.57;100681.13;7386717;19;20363;-57
2021/11/12 01:06:30;;;;;;;22.15;16.40;;;;;;;22.51;45.68;100681.13;7387331;19;20447;-55
2021/11/12 01:09:22;;;;;;;19.95;15.95;;;;;;;22.51;45.61;100673.09;7386881;19;20041;-55
2021/11/12 01:12:13;;;;;;;23.15;15.60;;;;;;;22.52;45.51;100672.13;7389207;19;20109;-53
2021/11/12 01:15:00;;;;;;;;;;;;;;;22.53;45.29;100663.13;7386814;19;20041;-52
2021/11/12 01:17:49;;;;;;;20.38;15.00;;;;;;;22.59;45.39;100667.97;7387983;19;19939;-55
2021/11/12 01:20:36;;;;;;;19.30;15.20;;;;;;;22.60;45.51;100669.66;7386629;19;20593;-52
2021/11/12 01:23:24;;;;;;;23.70;16.35;;;;;;;22.61;45.42;100671.34;7386972;19;20447;-51
2021/11/12 01:26:13;;;;;;;20.55;15.52;;;;;;;22.60;45.43;100667.00;7388204;19;20028;-57
2021/11/12 01:29:04;;;;;;;19.30;14.45;;;;;;;22.60;45.78;100661.66;7386175;19;20044;-56
2021/11/12 01:31:52;;;;;;;20.02;14.63;;;;;;;22.64;45.65;100667.56;7387984;19;20048;-57
2021/11/12 01:34:39;;;;;;;17.50;14.57;;;;;;;22.65;45.57;100666.59;7386027;19;20530;-56
2021/11/12 01:37:28;;;;;;;20.92;15.38;;;;;;;22.65;45.19;100661.25;7388078;19;20025;-56
2021/11/12 01:40:24;;;;;;;18.55;14.18;;;;;;;22.66;45.58;100666.47;7388111;19;20052;-52
2021/11/12 01:43:16;;;;;;;20.02;14.70;;;;;;;22.66;45.35;100658.47;7387159;19;20051;-56
2021/11/12 01:49:25;;;;;;;22.83;15.23;;;;;;;22.70;45.69;100667.94;7385978;19;20029;-54
2021/11/12 01:52:38;;;;;;;20.52;14.90;;;;;;;22.70;45.15;100662.59;7387645;19;20106;-56
2021/11/12 01:55:40;;;;;;;23.48;16.33;;;;;;;22.70;45.84;100664.44;7387749;19;20037;-58
2021/11/12 01:58:38;;;;;;;18.92;13.57;;;;;;;22.67;45.35;100664.66;7386787;19;20033;-59
2021/11/12 02:01:28;;;;;;;19.85;14.55;;;;;;;22.65;45.19;100670.13;7385821;19;20449;-57
2021/11/12 02:06:51;;;;;;;21.98;14.18;;;;;;;22.65;45.80;100680.81;7368586;19;20245;-56
2021/11/12 02:09:38;;;;;;;20.15;13.95;;;;;;;22.68;45.71;100683.22;7385543;19;20114;-57
2021/11/12 02:12:29;;;;;;;18.63;13.75;;;;;;;22.68;45.78;100680.56;7385666;19;20113;-57
2021/11/12 02:15:17;;;;;;;18.88;13.73;;;;;;;22.71;45.72;100687.50;7386534;19;20560;-56
2021/11/12 02:18:12;;;;;;;19.60;13.30;;;;;;;22.71;45.49;100672.31;7386638;19;20498;-58
2021/11/12 02:21:06;;;;;;;18.88;13.63;;;;;;;22.73;45.39;100672.19;7385078;19;20424;-58
2021/11/12 02:24:02;;;;;;;18.95;14.10;;;;;;;22.75;45.08;100678.25;7385939;19;20518;-56
2021/11/12 02:26:56;;;;;;;17.67;13.00;;;;;;;22.75;45.26;100676.44;7384688;19;20035;-54
2021/11/12 02:29:56;;;;;;;20.42;13.30;;;;;;;22.75;44.93;100676.44;7386067;19;20107;-54
2021/11/12 02:32:44;;;;;;;18.23;13.02;;;;;;;22.78;45.15;100686.00;7385890;19;20037;-55
2021/11/12 02:35:35;;;;;;;17.83;13.07;;;;;;;22.77;45.48;100679.81;7385596;19;20025;-54
2021/11/12 02:38:25;;;;;;;18.00;12.98;;;;;;;22.77;45.35;100685.16;7385924;19;20038;-54
2021/11/12 02:41:13;;;;;;;18.67;12.95;;;;;;;22.75;45.44;100691.63;7384603;19;20372;-55
2021/11/12 02:44:03;;;;;;;16.88;12.50;;;;;;;22.72;45.07;100682.03;7385325;19;20395;-55
2021/11/12 02:46:50;;;;;;;17.17;12.63;;;;;;;22.72;45.50;100684.69;7384359;19;20415;-56
2021/11/12 02:49:38;;;;;;;16.05;12.68;;;;;;;22.72;45.49;100682.03;7385116;19;20036;-52
2021/11/12 02:52:26;;;;;;;17.40;13.05;;;;;;;22.72;45.36;100689.19;7385301;19;20029;-53
2021/11/12 02:55:16;;;;;;;17.95;12.57;;;;;;;22.74;45.29;100681.91;7384991;19;20029;-57
2021/11/12 02:58:04;;;;;;;18.02;13.25;;;;;;;22.73;45.01;100694.41;7384936;19;20052;-59
2021/11/12 03:00:52;;;;;;;15.85;11.90;;;;;;;22.71;45.46;100693.69;7384498;19;20029;-57
2021/11/12 03:03:39;;;;;;;17.45;12.25;;;;;;;22.71;45.40;100696.38;7385076;19;20031;-57
2021/11/12 03:06:27;;;;;;;17.55;12.63;;;;;;;22.72;45.21;100690.03;7378709;19;20854;-58
2021/11/12 03:09:15;;;;;;;17.17;12.25;;;;;;;22.72;45.14;100687.38;7384342;19;20537;-59
2021/11/12 03:12:07;;;;;;;16.73;12.25;;;;;;;22.72;45.33;100692.72;7383045;19;20029;-56
2021/11/12 03:14:56;;;;;;;16.98;12.27;;;;;;;22.75;45.48;100694.28;7385610;19;20817;-57
2021/11/12 03:17:45;;;;;;;17.88;11.82;;;;;;;22.70;45.35;100692.00;7384451;19;20021;-52
2021/11/12 03:20:33;;;;;;;15.32;12.25;;;;;;;22.70;45.06;100686.66;7384214;19;20388;-51
2021/11/12 03:23:24;;;;;;;17.10;11.48;;;;;;;22.71;45.37;100690.19;7384460;19;20059;-54
2021/11/12 03:26:21;;;;;;;18.85;12.18;;;;;;;22.72;45.75;100684.69;7382618;19;20510;-58
2021/11/12 03:29:27;;;;;;;16.48;11.90;;;;;;;22.76;45.78;100685.28;7384386;19;20039;-58
2021/11/12 04:02:28;;;;;;;14.10;10.80;;;;;;;22.84;45.47;100716.75;7381641;19;20029;-56
2021/11/12 04:41:50;;;;;;;16.15;11.27;;;;;;;22.74;45.37;100704.13;7388040;19;20050;-54
2021/11/12 05:45:31;;;;;;;13.95;10.10;;;;;;;22.64;45.60;100748.59;7386185;19;20388;-56
2021/11/12 05:57:23;;;;;;;13.30;10.25;;;;;;;22.71;45.35;100759.66;7377558;19;20018;-55
2021/11/12 06:00:14;;;;;;;14.50;10.20;;;;;;;22.72;45.92;100762.22;7387100;19;20100;-55
2021/11/12 06:03:04;;;;;;;14.07;10.35;;;;;;;22.73;45.64;100765.72;7386883;19;20371;-57
2021/11/12 06:05:52;;;;;;;14.52;10.88;;;;;;;22.74;45.95;100768.28;7386487;19;20280;-52
2021/11/12 06:08:40;;;;;;;12.77;9.55;;;;;;;22.72;45.69;100772.91;7387048;19;20017;-51
2021/11/12 06:11:28;;;;;;;14.70;10.52;;;;;;;22.72;45.68;100770.22;7385533;19;20025;-51
2021/11/12 06:14:16;;;;;;;14.07;10.40;;;;;;;22.72;45.83;100767.56;7361566;19;20021;-54
2021/11/12 06:17:03;;;;;;;17.17;10.63;;;;;;;22.71;45.82;100765.00;7386803;19;20025;-53
2021/11/12 06:19:54;;;;;;;16.15;11.13;;;;;;;22.70;45.92;100761.47;7384772;19;20489;-53
2021/11/12 06:22:42;;;;;;;14.53;10.03;;;;;;;22.72;45.71;100762.22;7386141;19;20430;-52
2021/11/12 06:25:29;;;;;;;16.48;10.77;;;;;;;22.74;45.58;100772.78;7385647;19;20045;-57
2021/11/12 06:28:17;;;;;;;16.60;11.38;;;;;;;22.76;45.18;100770.81;7385757;19;20444;-54
2021/11/12 06:31:05;;;;;;;14.70;10.90;;;;;;;22.76;45.07;100777.03;7373322;19;20026;-52
2021/11/12 06:33:54;;;;;;;14.90;10.60;;;;;;;22.77;45.18;100780.53;7386074;19;20017;-54
2021/11/12 06:36:45;;;;;;;16.40;9.80;;;;;;;22.78;45.30;100783.09;7385773;19;20037;-52
2021/11/12 06:39:32;;;;;;;19.73;12.10;;;;;;;22.80;45.51;100791.81;7384986;19;20029;-50
2021/11/12 06:42:22;;;;;;;17.08;11.75;;;;;;;22.83;44.76;100800.59;7385133;19;20489;-51
2021/11/12 06:51:04;;;;;;;16.07;10.70;;;;;;;22.83;45.14;100804.13;7373226;19;20354;-58
2021/11/12 06:53:57;;;;;;;14.25;10.18;;;;;;;22.83;45.18;100801.44;7385056;19;20278;-58
2021/11/12 06:56:44;;;;;;;13.90;9.90;;;;;;;22.84;44.94;100796.94;7383654;19;20501;-56
2021/11/12 07:02:08;;;;;;;13.27;10.10;;;;;;;22.83;45.15;100805.94;7338951;19;20365;-50
2021/11/12 07:04:56;;;;;;;13.75;9.85;;;;;;;22.85;44.84;100795.97;7384935;19;20021;-52
2021/11/12 07:07:45;;;;;;;14.18;9.95;;;;;;;22.86;45.35;100803.88;7380788;19;20028;-50
2021/11/12 07:10:36;;;;;;;13.45;9.65;;;;;;;22.88;44.75;100803.75;7381552;19;20506;-47
2021/11/12 07:13:25;;;;;;;;;;;;;;;22.86;45.11;100806.53;7381284;19;20147;-50
2021/11/12 07:16:12;;;;;;;13.55;9.50;;;;;;;22.91;45.05;100808.88;7382182;19;19934;-50
2021/11/12 07:19:00;;;;;;;13.93;10.00;;;;;;;;;;7382080;19;20581;-52
2021/11/12 07:21:48;;;;;;;14.70;9.77;;;;;;;22.91;45.49;100811.53;7381479;19;20029;-53
2021/11/12 07:24:36;;;;;;;13.25;9.30;;;;;;;22.88;45.23;100809.09;7381767;19;20021;-52
2021/11/12 07:27:27;;;;;;;15.98;10.10;;;;;;;22.82;45.07;100810.44;7381069;19;20043;-53
2021/11/12 07:30:19;;;;;;;19.27;10.17;;;;;;;22.79;45.05;100811.50;7381386;19;20033;-51
2021/11/12 07:46:10;;;;;;;14.07;9.70;;;;;;;22.90;45.36;100801.78;7379729;19;20002;-53
2021/11/12 07:49:01;;;;;;;16.65;8.95;;;;;;;22.97;45.00;100813.72;7381269;19;20035;-54
2021/11/12 07:51:49;;;;;;;18.30;10.55;;;;;;;22.98;45.14;100805.56;7379625;19;20503;-51
2021/11/12 07:54:36;;;;;;;16.02;10.60;;;;;;;23.07;45.04;100817.31;7380948;19;20041;-53
2021/11/12 07:57:24;;;;;;;21.17;10.55;;;;;;;23.21;45.01;100819.72;7379335;19;20029;-54
2021/11/12 08:00:12;;;;;;;17.55;11.13;;;;;;;23.34;45.10;100812.41;7379897;19;20017;-53
2021/11/12 08:03:00;;;;;;;21.52;12.35;;;;;;;23.45;45.75;100824.03;7379217;19;20039;-52
2021/11/12 08:05:52;;;;;;;21.58;11.98;;;;;;;23.54;47.17;100812.56;7380745;19;20025;-53
2021/11/12 08:08:42;;;;;;;27.15;15.25;;;;;;;23.59;47.71;100813.06;7380548;19;20025;-53
2021/11/12 08:11:35;;;;;;;24.50;14.95;;;;;;;23.55;48.28;100816.94;7380735;19;20039;-53
2021/11/12 08:14:26;;;;;;;25.13;14.45;;;;;;;23.56;48.46;100810.59;7387365;19;20021;-49
2021/11/12 08:17:22;;;;;;;;;;;;;;;23.57;47.55;100817.69;7387289;19;20029;-52
2021/11/12 08:20:16;;;;;;;21.23;13.45;;;;;;;23.60;48.56;100812.06;7387693;19;19926;-50
2021/11/12 08:39:26;;;;;;;29.20;15.77;;;;;;;23.54;49.47;100817.91;7386768;19;20457;-53
2021/11/12 08:42:17;;;;;;;23.27;14.68;;;;;;;23.53;49.05;100818.88;7386455;19;20039;-50
2021/11/12 08:45:09;;;;;;;22.80;15.10;;;;;;;23.54;49.29;100820.59;7386836;19;20364;-54
2021/11/12 08:48:00;;;;;;;27.85;17.90;;;;;;;23.41;47.62;100831.47;7384358;19;20030;-50
2021/11/12 08:50:48;;;;;;;28.48;18.65;;;;;;;23.15;48.51;100832.75;7386068;19;20498;-51
2021/11/12 08:53:38;;;;;;;29.67;17.98;;;;;;;22.99;48.85;100827.81;7386166;19;20025;-52
2021/11/12 08:56:25;;;;;;;29.65;17.42;;;;;;;22.78;49.12;100836.53;7386174;19;20020;-54
2021/11/12 08:59:13;;;;;;;29.95;18.65;;;;;;;22.69;49.11;100831.06;7386140;19;20048;-54
2021/11/12 09:02:01;;;;;;;28.58;17.83;;;;;;;22.52;49.30;100830.59;7385143;19;20041;-49
2021/11/12 09:04:50;;;;;;;48.20;21.65;;;;;;;22.42;47.97;100824.28;7386792;19;20059;-51
2021/11/12 09:07:38;;;;;;;39.65;20.88;;;;;;;22.27;47.66;100822.78;7385144;19;20029;-49
2021/11/12 09:10:30;;;;;;;34.25;21.60;;;;;;;22.15;48.23;100827.28;7385949;19;20114;-52
2021/11/12 09:13:19;;;;;;;34.35;20.98;;;;;;;22.02;48.13;100826.50;7383752;19;20033;-54
2021/11/12 09:16:10;;;;;;;40.15;22.20;;;;;;;21.89;47.56;100826.59;7385575;19;20592;-50
2021/11/12 09:18:58;;;;;;;42.95;21.48;;;;;;;21.76;47.91;100817.81;7386548;19;20037;-54
2021/11/12 09:21:48;;;;;;;38.08;22.27;;;;;;;21.68;47.77;100816.72;7385303;19;20041;-58
2021/11/12 09:24:35;;;;;;;42.17;21.30;;;;;;;21.59;47.17;100816.41;7385110;19;20051;-52
2021/11/12 09:27:27;;;;;;;35.22;21.95;;;;;;;21.50;47.16;100814.47;7383574;19;20049;-55
2021/11/12 09:30:17;;;;;;;39.70;21.80;;;;;;;21.45;47.77;100813.09;7385208;19;20037;-57
2021/11/12 09:33:06;;;;;;;33.45;21.00;;;;;;;21.39;47.22;100811.72;7383164;19;20436;-63
2021/11/12 09:35:54;;;;;;;38.55;20.88;;;;;;;21.30;48.09;100815.09;7384427;19;20052;-50
2021/11/12 09:38:43;;;;;;;40.65;19.75;;;;;;;21.29;47.99;100813.38;7384876;19;20117;-54
2021/11/12 09:41:32;;;;;;;37.50;21.70;;;;;;;21.23;47.66;100819.13;7383790;19;20115;-51
2021/11/12 09:44:22;;;;;;;35.50;21.25;;;;;;;21.17;47.17;100811.59;7385171;19;20025;-54
2021/11/12 09:47:10;;;;;;;32.85;20.08;;;;;;;21.08;47.81;100813.13;7384293;19;20114;-52
2021/11/12 09:50:09;;;;;;;31.80;20.33;;;;;;;21.01;47.94;100817.19;7385395;19;20025;-54
2021/11/12 09:52:58;;;;;;;35.10;20.20;;;;;;;20.94;47.40;100814.13;7382343;19;20433;-54
2021/11/12 09:55:47;;;;;;;34.05;22.40;;;;;;;20.87;47.21;100804.88;7384648;19;20018;-52
2021/11/12 09:58:35;;;;;;;35.67;21.30;;;;;;;20.81;47.32;100809.78;7384423;19;20025;-52
2021/11/12 10:01:28;;;;;;;33.00;20.45;;;;;;;20.74;47.83;100814.69;7383654;19;20383;-56
2021/11/12 10:04:16;;;;;;;41.45;21.63;;;;;;;20.76;47.79;100812.78;7383987;19;20494;-52
2021/11/12 10:07:11;;;;;;;36.95;20.08;;;;;;;20.82;47.89;100814.13;7382562;19;20114;-51
2021/11/12 10:10:05;;;;;;;38.10;21.10;;;;;;;20.89;47.94;100802.94;7384287;19;20117;-57
2021/11/12 10:12:54;;;;;;;37.58;20.08;;;;;;;21.05;47.48;100796.50;7382386;19;20573;-54
2021/11/12 10:15:42;;;;;;;36.78;20.08;;;;;;;21.10;46.91;100795.19;7384370;19;20063;-54
2021/11/12 10:18:32;;;;;;;36.05;20.27;;;;;;;21.02;46.98;100798.41;7382039;19;20607;-51
2021/11/12 10:21:19;;;;;;;31.52;20.25;;;;;;;20.90;47.11;100798.47;7381370;19;20022;-58
2021/11/12 10:24:09;;;;;;;39.10;21.80;;;;;;;20.81;47.67;100797.31;7383845;19;20033;-55
2021/11/12 10:27:00;;;;;;;35.10;20.95;;;;;;;20.72;48.46;100795.31;7383642;19;20498;-55
2021/11/12 10:33:42;;;;;;;35.60;21.77;;;;;;;20.65;48.06;100788.72;7381161;19;20581;-55
2021/11/12 10:36:51;;;;;;;38.63;20.25;;;;;;;20.62;48.36;100784.47;7380666;19;20038;-53
2021/11/12 10:39:42;;;;;;;31.67;19.67;;;;;;;20.68;48.36;100783.19;7381576;19;20017;-54
2021/11/12 10:42:33;;;;;;;37.17;20.23;;;;;;;20.76;48.22;100782.63;7379894;19;20045;-52
2021/11/12 10:45:23;;;;;;;35.47;21.58;;;;;;;20.77;48.62;100779.84;7381017;19;20021;-52
2021/11/12 10:48:11;;;;;;;36.13;21.25;;;;;;;20.75;49.23;100781.78;7379491;19;20029;-48
2021/11/12 11:01:15;;;;;;;58.65;21.48;;;;;;;20.76;49.06;100763.97;7380901;19;20014;-62
2021/11/12 11:04:22;;;;;;;37.85;20.63;;;;;;;20.82;48.83;100758.19;7379493;19;20029;-60
2021/11/12 11:07:31;;;;;;;36.05;20.30;;;;;;;20.87;48.74;100764.91;7382564;19;20044;-56
2021/11/12 11:10:29;;;;;;;43.20;20.60;;;;;;;20.88;48.69;100758.59;7381046;19;20033;-60
2021/11/12 11:13:20;;;;;;;39.03;21.17;;;;;;;20.87;49.31;100762.22;7380120;19;20052;-58
2021/11/12 11:16:10;;;;;;;38.45;22.85;;;;;;;20.91;49.56;100758.38;7382912;19;20037;-59
2021/11/12 11:18:58;;;;;;;35.58;20.08;;;;;;;20.84;50.20;100756.28;7381161;19;20510;-59
2021/11/12 11:21:45;;;;;;;35.55;21.27;;;;;;;20.93;49.14;100756.44;7380727;19;20021;-59
2021/11/12 11:24:36;;;;;;;39.92;21.10;;;;;;;20.84;48.88;100751.81;7380799;19;20125;-59
2021/11/12 11:27:24;;;;;;;44.20;24.67;;;;;;;20.80;48.09;100752.97;7381192;19;20473;-63
2021/11/12 11:30:12;;;;;;;42.75;23.27;;;;;;;20.77;47.95;100749.69;7380698;19;20573;-61
2021/11/12 11:33:01;;;;;;;46.55;23.70;;;;;;;20.74;48.62;100756.09;7380268;19;20021;-60
2021/11/12 11:35:55;;;;;;;39.08;21.45;;;;;;;20.73;48.25;100743.72;7381503;19;20107;-60
2021/11/12 11:38:43;;;;;;;40.00;22.35;;;;;;;20.72;48.59;100742.03;7378942;19;20030;-60
2021/11/12 11:41:34;;;;;;;39.88;23.50;;;;;;;20.74;48.08;100744.59;7381198;19;20022;-58
2021/11/12 11:44:23;;;;;;;41.10;24.08;;;;;;;20.74;48.07;100740.09;7379761;19;20048;-60
2021/11/12 11:47:11;;;;;;;44.05;24.08;;;;;;;20.74;47.72;100745.44;7384827;19;20106;-58
2021/11/12 11:49:59;;;;;;;41.63;24.92;;;;;;;20.77;47.83;100739.88;7387594;19;20110;-62
2021/11/12 11:52:47;;;;;;;41.58;24.08;;;;;;;20.81;47.10;100737.81;7385982;19;20060;-59
2021/11/12 11:55:40;;;;;;;40.55;23.95;;;;;;;20.80;47.07;100730.81;7385519;19;20101;-57
2021/11/12 11:58:41;;;;;;;41.53;25.98;;;;;;;20.80;46.85;100736.97;7386218;19;20465;-58
2021/11/12 12:01:40;;;;;;;44.17;23.60;;;;;;;20.80;46.86;100728.97;7389223;19;20026;-58
2021/11/12 12:04:32;;;;;;;43.03;24.67;;;;;;;20.83;46.96;100731.44;7385429;19;20492;-59
2021/11/12 12:07:25;;;;;;;43.75;24.25;;;;;;;20.82;46.78;100727.09;7388881;19;20041;-62
2021/11/12 12:10:23;;;;;;;42.97;24.05;;;;;;;20.84;47.02;100719.81;7385790;19;20376;-59
2021/11/12 12:13:10;;;;;;;39.55;23.15;;;;;;;21.01;47.36;100722.06;7386045;19;20026;-59
2021/11/12 12:16:08;;;;;;;47.42;25.92;;;;;;;21.10;47.02;100719.69;7387050;19;20038;-68
2021/11/12 12:18:56;;;;;;;49.70;28.63;;;;;;;21.16;47.23;100716.56;7386338;19;20029;-62
2021/11/12 12:22:12;;;;;;;48.10;29.50;;;;;;;21.29;48.50;100710.25;7387767;19;20216;-61
2021/11/12 12:35:23;;;;;;;53.38;34.65;;;;;;;21.55;55.24;100700.25;7384344;19;20537;-63
2021/11/12 12:38:45;;;;;;;53.33;34.17;;;;;;;21.67;54.79;100708.28;7387422;19;20513;-60
2021/11/12 13:21:54;;;;;;;52.63;33.33;;;;;;;21.34;62.74;100693.88;7385906;19;20021;-61
2021/11/12 13:24:41;;;;;;;48.03;32.03;;;;;;;21.33;62.05;100692.19;7383914;19;20428;-61
2021/11/12 13:27:30;;;;;;;46.97;30.85;;;;;;;21.34;61.39;100685.03;7385205;19;20018;-62
2021/11/12 13:30:30;;;;;;;47.83;31.60;;;;;;;21.31;60.90;100696.78;7383394;19;20601;-62
2021/11/12 13:33:39;;;;;;;56.55;31.13;;;;;;;21.27;60.51;100685.50;7382942;19;20034;-63
2021/11/12 13:36:29;;;;;;;48.75;31.98;;;;;;;21.27;60.54;100687.31;7384132;19;20022;-63
2021/11/12 13:39:19;;;;;;;45.70;31.77;;;;;;;21.21;60.47;100682.41;7383163;19;20033;-63
2021/11/12 13:42:09;;;;;;;44.80;30.63;;;;;;;21.19;60.70;100695.00;7385619;19;20021;-63
2021/11/12 13:44:57;;;;;;;45.70;30.30;;;;;;;21.24;59.63;100703.56;7384376;19;20376;-63
2021/11/12 13:47:46;;;;;;;43.85;29.60;;;;;;;21.20;59.54;100699.38;7385212;19;20048;-65
2021/11/12 13:50:36;;;;;;;49.50;30.48;;;;;;;21.19;59.33;100705.66;7382481;19;20706;-64
2021/11/12 13:53:28;;;;;;;46.67;28.77;;;;;;;21.13;59.29;100703.47;7383380;19;20511;-62
2021/11/12 13:56:15;;;;;;;49.90;30.08;;;;;;;21.10;59.61;100704.56;7385008;19;20146;-63
2021/11/12 13:59:08;;;;;;;48.20;30.10;;;;;;;21.10;59.41;100693.88;7383828;19;20033;-62
2021/11/12 14:02:06;;;;;;;51.13;29.65;;;;;;;21.15;58.48;100699.72;7384291;19;20017;-63
2021/11/12 14:04:53;;;;;;;42.67;28.90;;;;;;;21.25;58.37;100702.59;7382792;19;20362;-62
2021/11/12 14:07:45;;;;;;;45.47;27.88;;;;;;;21.14;58.45;100694.50;7384044;19;20014;-62
2021/11/12 14:10:43;;;;;;;49.15;28.70;;;;;;;21.07;58.43;100699.47;7380733;19;20519;-63
2021/11/12 14:13:41;;;;;;;42.97;28.75;;;;;;;21.06;57.52;100700.44;7382819;19;20029;-62
2021/11/12 14:16:34;;;;;;;39.95;28.35;;;;;;;21.04;58.08;100704.19;7384173;19;20026;-63
2021/11/12 14:22:34;;;;;;;40.40;27.88;;;;;;;20.90;57.95;100703.38;7382467;19;20040;-63
2021/11/12 14:25:31;;;;;;;41.63;26.65;;;;;;;20.82;57.77;100700.44;7381274;19;20051;-62
2021/11/12 14:28:24;;;;;;;40.90;28.08;;;;;;;20.80;58.04;100702.34;7383152;19;20030;-63
2021/11/12 14:31:19;;;;;;;41.05;26.67;;;;;;;20.79;57.79;100695.31;7383304;19;20026;-62
2021/11/12 14:38:11;;;;;;;36.25;24.75;;;;;;;20.82;57.03;100689.78;7383290;19;20522;-61
2021/11/12 14:47:18;;;;;;;41.92;25.17;;;;;;;19.67;57.36;100713.06;7381506;19;20021;-64
2021/11/12 14:50:29;;;;;;;46.53;23.98;;;;;;;19.14;57.93;100698.91;7381150;19;20063;-62
2021/11/12 14:53:28;;;;;;;41.83;23.85;;;;;;;18.91;57.28;100710.19;7380467;19;20025;-62
2021/11/12 14:56:21;;;;;;;41.83;24.30;;;;;;;18.58;57.45;100714.06;7382198;19;20017;-65
2021/11/12 14:59:15;;;;;;;42.47;24.85;;;;;;;18.94;57.67;100704.69;7333820;19;20038;-52
2021/11/12 15:02:03;;;;;;;42.90;23.33;;;;;;;19.64;56.71;100699.13;7380308;19;20026;-55
2021/11/12 15:04:51;;;;;;;36.42;22.40;;;;;;;20.03;55.75;100704.34;7381726;19;20035;-54
2021/11/12 15:07:41;;;;;;;39.15;22.70;;;;;;;20.17;54.83;100705.16;7382481;19;20020;-56
2021/11/12 15:10:30;;;;;;;47.40;22.30;;;;;;;20.20;55.34;100700.50;7378991;19;20116;-55
2021/11/12 15:13:20;;;;;;;37.63;22.50;;;;;;;20.22;55.37;100703.03;7380774;19;20368;-54
2021/11/12 15:16:12;;;;;;;35.38;22.30;;;;;;;20.21;54.97;100696.88;7380947;19;20029;-55
2021/11/12 15:19:01;;;;;;;37.55;22.80;;;;;;;20.18;55.02;100699.72;7381123;19;20025;-55
2021/11/12 15:21:54;;;;;;;41.35;22.88;;;;;;;20.17;55.17;100706.00;7380829;19;20567;-57
2021/11/12 15:24:51;;;;;;;42.33;22.20;;;;;;;20.14;55.20;100708.88;7381217;19;20041;-56
2021/11/12 15:28:00;;;;;;;35.05;21.77;;;;;;;20.16;54.51;100706.13;7382005;19;20076;-55
2021/11/12 15:30:56;;;;;;;36.53;21.85;;;;;;;20.17;55.57;100703.34;7381885;19;20028;-60
2021/11/12 15:33:45;;;;;;;38.15;22.30;;;;;;;20.20;54.94;100699.59;7380304;19;20624;-57
2021/11/12 15:36:34;;;;;;;33.85;21.80;;;;;;;20.16;54.56;100712.28;7381306;19;20013;-56
2021/11/12 15:39:30;;;;;;;37.65;23.92;;;;;;;20.14;55.18;100708.03;7380486;19;20041;-57
2021/11/12 15:45:38;;;;;;;31.73;21.50;;;;;;;20.10;54.91;100704.75;7377112;19;20049;-58
2021/11/12 15:48:33;;;;;;;35.05;22.17;;;;;;;20.06;54.61;100708.59;7381490;19;20025;-51
2021/11/12 15:51:36;;;;;;;37.67;22.67;;;;;;;20.05;55.03;100706.91;7380447;19;20021;-56
2021/11/12 15:58:07;;;;;;;51.25;28.48;;;;;;;20.34;54.27;100716.31;7378200;19;20102;-50
2021/11/12 16:01:12;;;;;;;43.65;24.88;;;;;;;20.36;54.30;100718.84;7379394;19;20107;-54
2021/11/12 16:07:19;;;;;;;38.97;23.60;;;;;;;20.25;54.24;100716.97;7379941;19;20022;-52
2021/11/12 16:10:32;;;;;;;43.30;24.88;;;;;;;20.26;54.65;100724.00;7378223;19;20046;-58
2021/11/12 16:13:22;;;;;;;37.17;23.77;;;;;;;20.27;54.39;100722.19;7376403;19;20062;-51
2021/11/12 16:16:30;;;;;;;41.13;22.92;;;;;;;20.37;54.63;100717.91;7379984;19;20377;-54
2021/11/12 16:19:26;;;;;;;97.47;40.00;;;;;;;20.57;55.55;100722.66;7379177;19;20025;-56
2021/11/12 16:25:19;;;;;;;57.38;27.85;;;;;;;20.66;54.58;100726.50;7378330;19;20509;-55
2021/11/12 16:28:12;;;;;;;56.10;27.10;;;;;;;20.60;54.48;100721.59;7379877;19;20013;-57
2021/11/12 16:31:02;;;;;;;53.60;27.73;;;;;;;20.51;54.92;100723.13;7379816;19;20016;-55
2021/11/12 16:33:50;;;;;;;48.88;26.40;;;;;;;20.55;54.11;100729.06;7383366;19;20021;-55
2021/11/12 16:36:43;;;;;;;52.15;27.40;;;;;;;20.65;54.02;100727.47;7387304;19;20054;-54
2021/11/12 16:39:35;;;;;;;52.38;25.90;;;;;;;20.66;54.02;100734.50;7385249;19;20429;-55
2021/11/12 16:45:33;;;;;;;51.33;25.75;;;;;;;20.52;53.74;100729.31;7383150;19;20384;-64
2021/11/12 16:48:33;;;;;;;44.15;25.25;;;;;;;20.36;54.58;100725.03;7386117;19;20045;-62
2021/11/12 16:54:41;;;;;;;44.42;23.58;;;;;;;20.23;54.87;100734.88;7384539;19;20490;-65
2021/11/12 17:03:54;;;;;;;45.55;23.75;;;;;;;20.11;55.55;100751.69;7383667;19;20542;-63
2021/11/12 17:06:46;;;;;;;41.30;23.88;;;;;;;20.07;56.03;100747.56;7385861;19;20030;-64
2021/11/12 17:13:01;;;;;;;44.95;23.98;;;;;;;20.02;56.76;100750.53;7385607;19;20018;-60
2021/11/12 17:47:36;;;;;;;46.38;26.15;;;;;;;19.79;57.47;100722.88;7384612;19;20424;-62
2021/11/12 17:50:28;;;;;;;46.05;23.90;;;;;;;19.81;58.23;100722.75;7384123;19;20024;-62
2021/11/12 18:02:26;;;;;;;49.08;24.58;;;;;;;19.89;57.43;100722.22;7384849;19;20021;-60
2021/11/12 18:05:24;;;;;;;46.22;25.05;;;;;;;19.90;56.64;100718.59;7384599;19;20122;-63
2021/11/12 18:14:58;;;;;;;50.05;24.83;;;;;;;19.94;56.12;100707.63;7385719;19;20094;-61
2021/11/12 18:18:11;;;;;;;50.75;25.55;;;;;;;19.94;55.31;100701.47;7386007;19;20036;-62
2021/11/12 21:45:13;;;;;;;30.73;18.70;;;;;;;20.85;50.50;100608.75;7384494;19;20039;-62
2021/11/12 21:48:01;;;;;;;;;;;;;;;20.87;50.38;100605.00;7384185;19;20030;-65
2021/11/12 21:50:53;;;;;;;25.00;16.55;;;;;;;20.93;50.32;100595.69;7383575;19;19936;-64
2021/11/12 21:53:41;;;;;;;27.05;17.30;;;;;;;20.95;50.32;100591.09;7383996;19;20439;-62
2021/11/12 21:56:29;;;;;;;23.20;15.80;;;;;;;20.97;50.44;100587.34;7383370;19;20040;-63
2021/11/12 21:59:16;;;;;;;24.95;15.50;;;;;;;20.98;50.11;100586.38;7384273;19;20498;-64
2021/11/12 22:02:05;;;;;;;28.77;16.17;;;;;;;21.01;50.50;100574.63;7382058;19;20100;-64
2021/11/12 22:04:52;;;;;;;23.33;16.58;;;;;;;21.04;49.85;100576.22;7382745;19;20027;-63
2021/11/12 22:07:42;;;;;;;23.60;15.52;;;;;;;21.05;49.85;100569.94;7383276;19;20025;-63
2021/11/12 22:10:30;;;;;;;21.50;15.50;;;;;;;21.05;49.98;100581.44;7382373;19;20030;-62